Ocean Spirit 1 — 5VES2 — position and weather

sailwx.info

Track history (hours):
 
Tides and Currents Weather Stations Pressure Air Temp Water Temp Dewpoint Dewpoint Depression Visibility Wind Speed Wind Dir Waves Ship Positions

Ocean Spirit 1

Last reported at 2017-Dec-12 08:18 UTC. Time now 2018-Feb-21 23:02 UTC.
Position N 18°27' W 065°08'.
Warning: this ship's position is months out of date.

Length 59 m; draft 3.1 m.

Type: . MMSI: 671856000.

Date/timePositionNaut miles runAvg speedWind from/ knotsBaromVisibWave heightAir tempDewpointWater temp
2017-Dec-12 08:18N 18°27' W 065°08'3 9.5
2017-Dec-12 08:00N 18°26' W 065°05'5 9.4
2017-Dec-12 07:29N 18°26' W 064°59'5 9.6
2017-Dec-12 07:00N 18°26' W 064°55'10 0.4
2017-Dec-11 09:00N 18°17' W 064°49'4 9.2
2017-Dec-11 08:30N 18°18' W 064°54'3 6.6
2017-Dec-11 08:00N 18°20' W 064°57'0 0.0
2017-Dec-11 07:31N 18°20' W 064°57'0 0.0
2017-Dec-11 07:00N 18°20' W 064°57'0 0.0
2017-Dec-11 06:30N 18°20' W 064°57'0 0.0
2017-Dec-11 06:00N 18°20' W 064°57'0 0.0
2017-Dec-11 05:30N 18°20' W 064°57'0 0.0
2017-Dec-11 05:00N 18°20' W 064°57'0 0.0
2017-Dec-11 04:30N 18°20' W 064°57'0 0.0
2017-Dec-11 04:00N 18°20' W 064°57'0 0.0
2017-Dec-11 03:30N 18°20' W 064°57'0 0.0
2017-Dec-11 03:00N 18°20' W 064°57'0 0.0
2017-Dec-11 02:31N 18°20' W 064°57'0 0.0
2017-Dec-11 02:00N 18°20' W 064°57'0 0.0
2017-Dec-11 01:30N 18°20' W 064°57'0 0.0
2017-Dec-11 01:00N 18°20' W 064°57'0 0.0
2017-Dec-11 00:30N 18°20' W 064°57'0 0.0
2017-Dec-11 00:00N 18°20' W 064°57'0 0.0
2017-Dec-10 23:30N 18°20' W 064°57'0 0.0
2017-Dec-10 23:00N 18°20' W 064°57'0 0.0
2017-Dec-10 22:30N 18°20' W 064°57'0 0.0
2017-Dec-10 22:00N 18°20' W 064°57'0 0.0
2017-Dec-10 21:29N 18°20' W 064°57'0 0.0
2017-Dec-10 20:48N 18°20' W 064°57'0 0.0
2017-Dec-10 20:31N 18°20' W 064°57'0 0.0
2017-Dec-10 20:01N 18°20' W 064°57'0 0.0
2017-Dec-10 19:30N 18°20' W 064°57'0 0.0
2017-Dec-10 19:00N 18°20' W 064°57'0 0.0
2017-Dec-10 18:30N 18°20' W 064°57'0 0.0
2017-Dec-10 18:00N 18°20' W 064°57'0 0.0
2017-Dec-10 17:30N 18°20' W 064°57'0 0.0
2017-Dec-10 17:00N 18°20' W 064°57'0 0.0
2017-Dec-10 16:30N 18°20' W 064°57'0 0.0
2017-Dec-10 16:00N 18°20' W 064°57'0 0.0
2017-Dec-10 15:29N 18°20' W 064°57'0 0.0
2017-Dec-10 15:00N 18°20' W 064°57'0 0.0
2017-Dec-10 14:31N 18°20' W 064°57'0 0.0
2017-Dec-10 14:00N 18°20' W 064°57'0 0.0
2017-Dec-10 13:30N 18°20' W 064°57'0 0.0
2017-Dec-10 13:00N 18°20' W 064°57'0 0.0
2017-Dec-10 12:30N 18°20' W 064°57'0 0.0
2017-Dec-10 12:00N 18°20' W 064°57'0 0.0
2017-Dec-10 11:28N 18°20' W 064°57'0 0.0
2017-Dec-10 11:00N 18°20' W 064°57'0 0.0
2017-Dec-10 10:31N 18°20' W 064°57'0 0.0
2017-Dec-10 10:00N 18°20' W 064°57'0 0.0
2017-Dec-10 09:30N 18°20' W 064°57'0 0.0
2017-Dec-10 09:00N 18°20' W 064°57'0 0.0
2017-Dec-10 08:30N 18°20' W 064°57'0 0.0
2017-Dec-10 08:00N 18°20' W 064°57'0 0.0
2017-Dec-10 07:30N 18°20' W 064°57'0 0.0
2017-Dec-10 07:00N 18°20' W 064°57'0 0.0
2017-Dec-10 06:30N 18°20' W 064°57'0 0.0
2017-Dec-10 06:00N 18°20' W 064°57'0 0.0
2017-Dec-10 05:30N 18°20' W 064°57'0 0.0
2017-Dec-10 05:01N 18°20' W 064°57'0 0.0
2017-Dec-10 04:30N 18°20' W 064°57'0 0.0
2017-Dec-10 04:00N 18°20' W 064°57'0 0.0
2017-Dec-10 03:30N 18°20' W 064°57'0 0.0
2017-Dec-10 03:01N 18°20' W 064°57'0 0.0
2017-Dec-10 02:30N 18°20' W 064°57'0 0.0
2017-Dec-10 02:01N 18°20' W 064°57'0 0.0
2017-Dec-10 01:31N 18°20' W 064°57'0 0.0
2017-Dec-10 01:00N 18°20' W 064°57'0 0.0
2017-Dec-10 00:30N 18°20' W 064°57'0 0.0
2017-Dec-10 00:00N 18°20' W 064°57'0 0.0
2017-Dec-09 23:30N 18°20' W 064°57'0 0.0
2017-Dec-09 23:01N 18°20' W 064°57'0 0.0
2017-Dec-09 22:30N 18°20' W 064°57'0 0.0
2017-Dec-09 22:00N 18°20' W 064°57'0 0.0
2017-Dec-09 21:28N 18°20' W 064°57'0 0.0
2017-Dec-09 21:00N 18°20' W 064°57'0 0.0
2017-Dec-09 20:30N 18°20' W 064°57'0 0.0
2017-Dec-09 20:00N 18°20' W 064°57'0 0.0
2017-Dec-09 19:31N 18°20' W 064°57'0 0.0
2017-Dec-09 19:00N 18°20' W 064°57'0 0.0
2017-Dec-09 18:31N 18°20' W 064°57'0 0.0
2017-Dec-09 18:01N 18°20' W 064°57'0 0.0
2017-Dec-09 17:31N 18°20' W 064°57'0 0.0
2017-Dec-09 17:01N 18°20' W 064°57'0 0.0
2017-Dec-09 16:30N 18°20' W 064°57'0 0.0
2017-Dec-09 16:00N 18°20' W 064°57'0 0.0
2017-Dec-09 15:27N 18°20' W 064°57'0 0.0
2017-Dec-09 15:00N 18°20' W 064°57'0 0.0
2017-Dec-09 14:30N 18°20' W 064°57'0 0.0
2017-Dec-09 14:00N 18°20' W 064°57'0 0.0
2017-Dec-09 13:30N 18°20' W 064°57'0 0.8
2017-Dec-09 13:00N 18°20' W 064°57'21 1.2
2017-Dec-08 18:53N 17°59' W 064°59'3 8.3
2017-Dec-08 18:30N 18°01' W 065°01'4 8.3
2017-Dec-08 18:00N 18°04' W 065°04'4 8.1
2017-Dec-08 17:30N 18°06' W 065°07'6 8.3
2017-Dec-08 16:48N 18°10' W 065°12'2 8.0
2017-Dec-08 16:29N 18°11' W 065°15'  
2017-Dec-04 10:30N 18°20' W 064°57'0 0.0
2017-Dec-04 10:00N 18°20' W 064°57'0 0.0
2017-Dec-04 09:30N 18°20' W 064°57'0 0.0
2017-Dec-04 09:00N 18°20' W 064°57'0 0.0
2017-Dec-04 08:30N 18°20' W 064°57'0 0.0
2017-Dec-04 08:00N 18°20' W 064°57'0 0.0
2017-Dec-04 07:28N 18°20' W 064°57'0 0.0
2017-Dec-04 07:00N 18°20' W 064°57'0 0.0
2017-Dec-04 06:30N 18°20' W 064°57'0 0.0
2017-Dec-04 06:00N 18°20' W 064°57'0 0.0
2017-Dec-04 05:29N 18°20' W 064°57'0 0.0
2017-Dec-04 05:00N 18°20' W 064°57'0 0.0
2017-Dec-04 04:30N 18°20' W 064°57'0 0.0
2017-Dec-04 04:00N 18°20' W 064°57'0 0.0
2017-Dec-04 03:30N 18°20' W 064°57'0 0.0
2017-Dec-04 03:00N 18°20' W 064°57'0 0.0
2017-Dec-04 02:30N 18°20' W 064°57'0 0.0
2017-Dec-04 02:00N 18°20' W 064°57'0 0.0
2017-Dec-04 01:29N 18°20' W 064°57'2 4.6
2017-Dec-04 01:00N 18°18' W 064°56'  
Track history (hours):
 
Tides and Currents Weather Stations Pressure Air Temp Water Temp Dewpoint Dewpoint Depression Visibility Wind Speed Wind Dir Waves Ship Positions

Ocean Spirit 1

Last reported at 2017-Dec-12 08:18 UTC. Time now 2018-Feb-21 23:02 UTC.
Position N 18°27' W 065°08'.
Warning: this ship's position is months out of date.

Length 59 m; draft 3.1 m.

Type: . MMSI: 671856000.

Date/timePositionNaut miles runAvg speedWind from/ knotsBaromVisibWave heightAir tempDewpointWater temp
2017-Dec-12 08:18N 18°27' W 065°08'3 9.5
2017-Dec-12 08:00N 18°26' W 065°05'5 9.4
2017-Dec-12 07:29N 18°26' W 064°59'5 9.6
2017-Dec-12 07:00N 18°26' W 064°55'10 0.4
2017-Dec-11 09:00N 18°17' W 064°49'4 9.2
2017-Dec-11 08:30N 18°18' W 064°54'3 6.6
2017-Dec-11 08:00N 18°20' W 064°57'0 0.0
2017-Dec-11 07:31N 18°20' W 064°57'0 0.0
2017-Dec-11 07:00N 18°20' W 064°57'0 0.0
2017-Dec-11 06:30N 18°20' W 064°57'0 0.0
2017-Dec-11 06:00N 18°20' W 064°57'0 0.0
2017-Dec-11 05:30N 18°20' W 064°57'0 0.0
2017-Dec-11 05:00N 18°20' W 064°57'0 0.0
2017-Dec-11 04:30N 18°20' W 064°57'0 0.0
2017-Dec-11 04:00N 18°20' W 064°57'0 0.0
2017-Dec-11 03:30N 18°20' W 064°57'0 0.0
2017-Dec-11 03:00N 18°20' W 064°57'0 0.0
2017-Dec-11 02:31N 18°20' W 064°57'0 0.0
2017-Dec-11 02:00N 18°20' W 064°57'0 0.0
2017-Dec-11 01:30N 18°20' W 064°57'0 0.0
2017-Dec-11 01:00N 18°20' W 064°57'0 0.0
2017-Dec-11 00:30N 18°20' W 064°57'0 0.0
2017-Dec-11 00:00N 18°20' W 064°57'0 0.0
2017-Dec-10 23:30N 18°20' W 064°57'0 0.0
2017-Dec-10 23:00N 18°20' W 064°57'0 0.0
2017-Dec-10 22:30N 18°20' W 064°57'0 0.0
2017-Dec-10 22:00N 18°20' W 064°57'0 0.0
2017-Dec-10 21:29N 18°20' W 064°57'0 0.0
2017-Dec-10 20:48N 18°20' W 064°57'0 0.0
2017-Dec-10 20:31N 18°20' W 064°57'0 0.0
2017-Dec-10 20:01N 18°20' W 064°57'0 0.0
2017-Dec-10 19:30N 18°20' W 064°57'0 0.0
2017-Dec-10 19:00N 18°20' W 064°57'0 0.0
2017-Dec-10 18:30N 18°20' W 064°57'0 0.0
2017-Dec-10 18:00N 18°20' W 064°57'0 0.0
2017-Dec-10 17:30N 18°20' W 064°57'0 0.0
2017-Dec-10 17:00N 18°20' W 064°57'0 0.0
2017-Dec-10 16:30N 18°20' W 064°57'0 0.0
2017-Dec-10 16:00N 18°20' W 064°57'0 0.0
2017-Dec-10 15:29N 18°20' W 064°57'0 0.0
2017-Dec-10 15:00N 18°20' W 064°57'0 0.0
2017-Dec-10 14:31N 18°20' W 064°57'0 0.0
2017-Dec-10 14:00N 18°20' W 064°57'0 0.0
2017-Dec-10 13:30N 18°20' W 064°57'0 0.0
2017-Dec-10 13:00N 18°20' W 064°57'0 0.0
2017-Dec-10 12:30N 18°20' W 064°57'0 0.0
2017-Dec-10 12:00N 18°20' W 064°57'0 0.0
2017-Dec-10 11:28N 18°20' W 064°57'0 0.0
2017-Dec-10 11:00N 18°20' W 064°57'0 0.0
2017-Dec-10 10:31N 18°20' W 064°57'0 0.0
2017-Dec-10 10:00N 18°20' W 064°57'0 0.0
2017-Dec-10 09:30N 18°20' W 064°57'0 0.0
2017-Dec-10 09:00N 18°20' W 064°57'0 0.0
2017-Dec-10 08:30N 18°20' W 064°57'0 0.0
2017-Dec-10 08:00N 18°20' W 064°57'0 0.0
2017-Dec-10 07:30N 18°20' W 064°57'0 0.0
2017-Dec-10 07:00N 18°20' W 064°57'0 0.0
2017-Dec-10 06:30N 18°20' W 064°57'0 0.0
2017-Dec-10 06:00N 18°20' W 064°57'0 0.0
2017-Dec-10 05:30N 18°20' W 064°57'0 0.0
2017-Dec-10 05:01N 18°20' W 064°57'0 0.0
2017-Dec-10 04:30N 18°20' W 064°57'0 0.0
2017-Dec-10 04:00N 18°20' W 064°57'0 0.0
2017-Dec-10 03:30N 18°20' W 064°57'0 0.0
2017-Dec-10 03:01N 18°20' W 064°57'0 0.0
2017-Dec-10 02:30N 18°20' W 064°57'0 0.0
2017-Dec-10 02:01N 18°20' W 064°57'0 0.0
2017-Dec-10 01:31N 18°20' W 064°57'0 0.0
2017-Dec-10 01:00N 18°20' W 064°57'0 0.0
2017-Dec-10 00:30N 18°20' W 064°57'0 0.0
2017-Dec-10 00:00N 18°20' W 064°57'0 0.0
2017-Dec-09 23:30N 18°20' W 064°57'0 0.0
2017-Dec-09 23:01N 18°20' W 064°57'0 0.0
2017-Dec-09 22:30N 18°20' W 064°57'0 0.0
2017-Dec-09 22:00N 18°20' W 064°57'0 0.0
2017-Dec-09 21:28N 18°20' W 064°57'0 0.0
2017-Dec-09 21:00N 18°20' W 064°57'0 0.0
2017-Dec-09 20:30N 18°20' W 064°57'0 0.0
2017-Dec-09 20:00N 18°20' W 064°57'0 0.0
2017-Dec-09 19:31N 18°20' W 064°57'0 0.0
2017-Dec-09 19:00N 18°20' W 064°57'0 0.0
2017-Dec-09 18:31N 18°20' W 064°57'0 0.0
2017-Dec-09 18:01N 18°20' W 064°57'0 0.0
2017-Dec-09 17:31N 18°20' W 064°57'0 0.0
2017-Dec-09 17:01N 18°20' W 064°57'0 0.0
2017-Dec-09 16:30N 18°20' W 064°57'0 0.0
2017-Dec-09 16:00N 18°20' W 064°57'0 0.0
2017-Dec-09 15:27N 18°20' W 064°57'0 0.0
2017-Dec-09 15:00N 18°20' W 064°57'0 0.0
2017-Dec-09 14:30N 18°20' W 064°57'0 0.0
2017-Dec-09 14:00N 18°20' W 064°57'0 0.0
2017-Dec-09 13:30N 18°20' W 064°57'0 0.8
2017-Dec-09 13:00N 18°20' W 064°57'21 1.2
2017-Dec-08 18:53N 17°59' W 064°59'3 8.3
2017-Dec-08 18:30N 18°01' W 065°01'4 8.3
2017-Dec-08 18:00N 18°04' W 065°04'4 8.1
2017-Dec-08 17:30N 18°06' W 065°07'6 8.3
2017-Dec-08 16:48N 18°10' W 065°12'2 8.0
2017-Dec-08 16:29N 18°11' W 065°15'  
2017-Dec-04 10:30N 18°20' W 064°57'0 0.0
2017-Dec-04 10:00N 18°20' W 064°57'0 0.0
2017-Dec-04 09:30N 18°20' W 064°57'0 0.0
2017-Dec-04 09:00N 18°20' W 064°57'0 0.0
2017-Dec-04 08:30N 18°20' W 064°57'0 0.0
2017-Dec-04 08:00N 18°20' W 064°57'0 0.0
2017-Dec-04 07:28N 18°20' W 064°57'0 0.0
2017-Dec-04 07:00N 18°20' W 064°57'0 0.0
2017-Dec-04 06:30N 18°20' W 064°57'0 0.0
2017-Dec-04 06:00N 18°20' W 064°57'0 0.0
2017-Dec-04 05:29N 18°20' W 064°57'0 0.0
2017-Dec-04 05:00N 18°20' W 064°57'0 0.0
2017-Dec-04 04:30N 18°20' W 064°57'0 0.0
2017-Dec-04 04:00N 18°20' W 064°57'0 0.0
2017-Dec-04 03:30N 18°20' W 064°57'0 0.0
2017-Dec-04 03:00N 18°20' W 064°57'0 0.0
2017-Dec-04 02:30N 18°20' W 064°57'0 0.0
2017-Dec-04 02:00N 18°20' W 064°57'0 0.0
2017-Dec-04 01:29N 18°20' W 064°57'2 4.6
2017-Dec-04 01:00N 18°18' W 064°56'  

Dump ship's entire track history